Time;durP1;ratioP1;P1;durP2;ratioP2;P2;SDS_P1;SDS_P2;PMS_P1;PMS_P2;Temp;Humidity;BMP_temperature;BMP_pressure;BME280_temperature;BME280_humidity;BME280_pressure;Samples;Min_cycle;Max_cycle;Signal;HPM_P1;HPM_P2
2024/02/24 00:01:18;;;;;;;0.10;0.10;;;;;;;2.95;100.00;96110.72;6314724;28;20292;-57
2024/02/24 00:04:21;;;;;;;0.63;0.10;;;;;;;2.82;100.00;96115.22;6307862;28;20241;-56
2024/02/24 00:07:23;;;;;;;0.00;0.00;;;;;;;2.92;100.00;96140.94;6301494;28;20190;-55
2024/02/24 00:10:25;;;;;;;0.20;0.10;;;;;;;2.95;100.00;96134.38;6316880;28;20725;-56
2024/02/24 00:13:27;;;;;;;0.33;0.10;;;;;;;2.99;100.00;96135.53;6315212;28;20197;-56
2024/02/24 00:16:29;;;;;;;0.00;0.00;;;;;;;2.82;100.00;96140.72;6306808;28;20502;-54
2024/02/24 00:19:31;;;;;;;0.10;0.10;;;;;;;2.90;100.00;96163.22;6305972;28;20205;-55
2024/02/24 00:22:35;;;;;;;0.00;0.00;;;;;;;2.91;100.00;96167.47;6309103;28;20317;-57
2024/02/24 00:25:37;;;;;;;0.00;0.00;;;;;;;2.92;100.00;96182.22;6307715;28;20282;-56
2024/02/24 00:28:39;;;;;;;0.10;0.10;;;;;;;2.84;100.00;96149.16;6309019;28;20185;-56
2024/02/24 00:31:41;;;;;;;0.00;0.00;;;;;;;2.90;100.00;96169.28;6301969;28;20655;-57
2024/02/24 00:34:44;;;;;;;0.00;0.00;;;;;;;2.89;100.00;96175.56;6315919;28;20199;-56
2024/02/24 00:37:46;;;;;;;0.10;0.10;;;;;;;2.78;100.00;96140.38;6310629;28;21022;-56
2024/02/24 00:40:48;;;;;;;0.00;0.00;;;;;;;2.97;100.00;96172.59;6305718;28;20237;-57
2024/02/24 00:43:52;;;;;;;0.00;0.00;;;;;;;2.90;100.00;96163.22;6304395;28;20253;-56
2024/02/24 00:46:54;;;;;;;0.10;0.10;;;;;;;3.01;100.00;96178.22;6306261;28;20198;-57
2024/02/24 00:49:56;;;;;;;0.10;0.10;;;;;;;3.08;100.00;96176.25;6306337;28;20194;-57
2024/02/24 00:52:58;;;;;;;0.10;0.10;;;;;;;3.09;100.00;96180.47;6307473;28;20193;-57
2024/02/24 00:56:00;;;;;;;0.17;0.10;;;;;;;3.03;100.00;96176.94;6306579;28;20719;-57
2024/02/24 00:59:02;;;;;;;0.10;0.10;;;;;;;2.95;100.00;96176.47;6309527;28;20228;-56
2024/02/24 01:02:05;;;;;;;0.03;0.03;;;;;;;2.88;100.00;96173.19;6311597;28;20210;-56
2024/02/24 01:05:07;;;;;;;0.03;0.03;;;;;;;2.88;100.00;96171.34;6295918;28;20666;-56
2024/02/24 01:08:09;;;;;;;0.10;0.10;;;;;;;2.83;100.00;96169.41;6309686;28;20194;-57
2024/02/24 01:11:11;;;;;;;0.10;0.10;;;;;;;2.86;100.00;96170.78;6310211;28;20818;-56
2024/02/24 01:14:14;;;;;;;0.20;0.10;;;;;;;2.80;100.00;96164.59;6308723;28;20195;-57
2024/02/24 01:17:16;;;;;;;0.07;0.07;;;;;;;2.78;100.00;96161.41;6306126;28;20196;-54
2024/02/24 01:20:18;;;;;;;0.03;0.03;;;;;;;2.87;100.00;96156.59;6306832;28;20295;-56
2024/02/24 01:23:21;;;;;;;0.10;0.10;;;;;;;2.87;100.00;96142.66;6308686;28;20270;-56
2024/02/24 01:26:23;;;;;;;0.10;0.10;;;;;;;2.82;100.00;96153.88;6300279;28;20193;-54
2024/02/24 01:29:26;;;;;;;0.10;0.10;;;;;;;2.76;100.00;96152.97;6311733;28;20524;-53
2024/02/24 01:32:28;;;;;;;0.00;0.00;;;;;;;2.81;100.00;96170.69;6316274;28;20190;-56
2024/02/24 01:35:30;;;;;;;0.03;0.03;;;;;;;2.82;100.00;96175.69;6312550;28;20198;-57
2024/02/24 01:38:32;;;;;;;0.10;0.10;;;;;;;2.78;100.00;96157.97;6304565;28;20197;-56
2024/02/24 01:41:34;;;;;;;0.10;0.10;;;;;;;2.68;100.00;96134.88;6301504;28;20614;-57
2024/02/24 01:44:37;;;;;;;0.33;0.00;;;;;;;2.65;100.00;96151.09;6303524;28;20588;-57
2024/02/24 01:47:39;;;;;;;0.00;0.00;;;;;;;2.83;100.00;96177.28;6296029;28;20403;-57
2024/02/24 01:50:42;;;;;;;0.00;0.00;;;;;;;2.83;100.00;96193.06;6304752;28;20568;-56
2024/02/24 01:53:44;;;;;;;0.00;0.00;;;;;;;2.78;100.00;96185.06;6310175;28;20331;-56
2024/02/24 01:56:46;;;;;;;0.00;0.00;;;;;;;2.87;100.00;96201.31;6296724;28;20287;-57
2024/02/24 01:59:49;;;;;;;0.00;0.00;;;;;;;2.81;100.00;96208.28;6297693;28;20735;-55
2024/02/24 02:02:51;;;;;;;0.10;0.10;;;;;;;2.75;100.00;96177.63;6309204;28;20205;-56
2024/02/24 02:05:54;;;;;;;0.00;0.00;;;;;;;2.89;100.00;96190.56;6298516;28;20298;-57
2024/02/24 02:08:56;;;;;;;1.10;0.00;;;;;;;2.75;100.00;96214.44;6303419;28;20665;-55
2024/02/24 02:11:58;;;;;;;0.00;0.00;;;;;;;2.69;100.00;96212.72;6307149;28;20199;-56
2024/02/24 02:15:05;;;;;;;0.30;0.30;;;;;;;2.75;100.00;96226.78;6308337;28;20185;-56
2024/02/24 02:18:07;;;;;;;0.10;0.10;;;;;;;2.72;100.00;96225.44;6304741;28;20197;-54
2024/02/24 02:21:11;;;;;;;0.00;0.00;;;;;;;2.77;100.00;96238.69;6303621;28;20199;-54
2024/02/24 02:24:15;;;;;;;0.10;0.00;;;;;;;2.79;100.00;96225.31;6294553;28;20678;-56
2024/02/24 02:27:17;;;;;;;0.10;0.03;;;;;;;2.81;100.00;96216.19;6297419;28;20306;-57
2024/02/24 02:30:19;;;;;;;0.43;0.10;;;;;;;2.81;100.00;96218.81;6310559;28;20199;-57
2024/02/24 02:33:21;;;;;;;1.40;0.10;;;;;;;2.86;100.00;96244.44;6311527;28;20796;-57
2024/02/24 02:36:24;;;;;;;0.00;0.00;;;;;;;2.82;100.00;96257.22;6302077;28;20241;-57
2024/02/24 02:39:26;;;;;;;0.00;0.00;;;;;;;2.76;100.00;96245.00;6303355;28;20192;-57
2024/02/24 02:42:28;;;;;;;0.00;0.00;;;;;;;2.70;100.00;96235.34;6302565;28;20722;-54
2024/02/24 02:45:30;;;;;;;0.00;0.00;;;;;;;2.47;100.00;96212.50;6305770;28;20186;-55
2024/02/24 02:48:32;;;;;;;0.47;0.10;;;;;;;2.75;100.00;96271.50;6303318;28;20195;-56
2024/02/24 02:51:35;;;;;;;0.00;0.00;;;;;;;2.83;100.00;96277.22;6301277;28;20196;-57
2024/02/24 02:54:37;;;;;;;0.10;0.10;;;;;;;2.82;100.00;96285.34;6301915;28;20459;-57
2024/02/24 02:57:39;;;;;;;0.00;0.00;;;;;;;2.61;100.00;96254.31;6308247;28;20201;-57
2024/02/24 03:00:41;;;;;;;0.10;0.10;;;;;;;2.72;100.00;96303.50;6309267;28;20195;-57
2024/02/24 03:03:43;;;;;;;0.00;0.00;;;;;;;2.78;100.00;96292.09;6308695;28;20533;-56
2024/02/24 03:06:45;;;;;;;0.00;0.00;;;;;;;2.80;100.00;96303.97;6313307;28;20207;-57
2024/02/24 03:09:48;;;;;;;0.10;0.10;;;;;;;2.80;100.00;96316.31;6310520;28;20218;-56
2024/02/24 03:12:50;;;;;;;0.00;0.00;;;;;;;2.74;100.00;96325.91;6304465;28;20216;-57
2024/02/24 03:15:52;;;;;;;1.00;0.00;;;;;;;2.80;100.00;96327.63;6303822;28;20209;-56
2024/02/24 03:18:55;;;;;;;0.07;0.07;;;;;;;2.50;100.00;96280.34;6305655;28;20197;-53
2024/02/24 03:21:57;;;;;;;0.07;0.07;;;;;;;2.85;100.00;96337.47;6304703;28;20197;-56
2024/02/24 03:24:59;;;;;;;0.00;0.00;;;;;;;2.78;100.00;96336.78;6312975;28;20188;-56
2024/02/24 03:28:02;;;;;;;0.00;0.00;;;;;;;2.80;100.00;96337.34;6305496;28;20197;-57
2024/02/24 03:31:04;;;;;;;0.30;0.00;;;;;;;2.81;100.00;96337.16;6304535;28;20190;-57
2024/02/24 03:34:07;;;;;;;0.23;0.17;;;;;;;2.80;100.00;96359.19;6301244;28;20183;-57
2024/02/24 03:37:09;;;;;;;0.00;0.00;;;;;;;2.90;100.00;96366.53;6306912;28;20199;-57
2024/02/24 03:40:12;;;;;;;0.50;0.10;;;;;;;2.94;100.00;96361.63;6314308;28;20661;-57
2024/02/24 03:43:14;;;;;;;0.10;0.10;;;;;;;2.81;100.00;96366.06;6306529;28;20232;-58
2024/02/24 03:46:16;;;;;;;0.10;0.10;;;;;;;2.79;100.00;96364.69;6303385;28;20198;-56
2024/02/24 03:49:18;;;;;;;0.03;0.03;;;;;;;2.79;100.00;96383.88;6309088;28;20197;-57
2024/02/24 03:52:21;;;;;;;0.10;0.10;;;;;;;2.67;100.00;96356.78;6306324;28;20317;-57
2024/02/24 03:55:23;;;;;;;0.03;0.03;;;;;;;2.78;100.00;96378.88;6314517;28;20212;-57
2024/02/24 03:58:25;;;;;;;0.27;0.10;;;;;;;2.78;100.00;96382.28;6319249;28;20192;-57
2024/02/24 04:01:27;;;;;;;0.10;0.10;;;;;;;2.78;100.00;96378.88;6304791;28;20191;-57
2024/02/24 04:04:30;;;;;;;0.10;0.10;;;;;;;2.76;100.00;96373.03;6316599;28;20221;-53
2024/02/24 04:07:32;;;;;;;0.20;0.20;;;;;;;2.64;100.00;96353.78;6312609;28;20192;-54
2024/02/24 04:10:34;;;;;;;0.67;0.10;;;;;;;2.80;100.00;96374.97;6312477;28;20657;-57
2024/02/24 04:13:36;;;;;;;0.10;0.10;;;;;;;2.81;100.00;96381.06;6309664;28;20764;-55
2024/02/24 04:16:38;;;;;;;0.30;0.20;;;;;;;2.88;100.00;96409.88;6306967;28;20846;-57
2024/02/24 04:19:41;;;;;;;0.10;0.10;;;;;;;2.92;100.00;96414.47;6307995;28;20919;-57
2024/02/24 04:22:43;;;;;;;0.10;0.10;;;;;;;2.96;100.00;96430.63;6312369;28;20197;-55
2024/02/24 04:25:45;;;;;;;0.20;0.20;;;;;;;2.90;100.00;96420.97;6307583;28;20684;-55
2024/02/24 04:28:47;;;;;;;0.10;0.10;;;;;;;3.01;100.00;96436.00;6299901;28;20569;-56
2024/02/24 04:31:49;;;;;;;0.10;0.10;;;;;;;2.91;100.00;96415.50;6313887;28;20203;-55
2024/02/24 04:34:51;;;;;;;0.10;0.10;;;;;;;3.06;100.00;96439.56;6317557;28;20198;-56
2024/02/24 04:37:53;;;;;;;0.10;0.10;;;;;;;3.04;100.00;96441.59;6308550;28;20197;-55
2024/02/24 04:40:56;;;;;;;0.17;0.10;;;;;;;2.98;100.00;96445.13;6307683;28;20222;-57
2024/02/24 04:43:58;;;;;;;0.10;0.10;;;;;;;3.05;100.00;96456.38;6307076;28;20292;-55
2024/02/24 04:47:00;;;;;;;0.10;0.10;;;;;;;3.12;100.00;96447.59;6305240;28;20675;-57
2024/02/24 04:50:03;;;;;;;0.10;0.10;;;;;;;3.16;100.00;96460.06;6304973;28;20731;-56
2024/02/24 04:53:05;;;;;;;0.10;0.10;;;;;;;3.18;100.00;96460.63;6298005;28;20190;-56
2024/02/24 04:56:09;;;;;;;0.10;0.10;;;;;;;3.19;100.00;96464.06;6314973;28;20670;-55
2024/02/24 04:59:12;;;;;;;0.13;0.13;;;;;;;3.20;100.00;96466.50;6316837;28;20204;-57
2024/02/24 05:02:14;;;;;;;0.23;0.13;;;;;;;3.15;100.00;96468.97;6309331;28;20812;-57
2024/02/24 05:05:16;;;;;;;0.13;0.13;;;;;;;3.17;100.00;96484.56;6311802;28;20219;-57
2024/02/24 05:08:18;;;;;;;0.10;0.10;;;;;;;3.16;100.00;96486.38;6307784;28;20222;-57
2024/02/24 05:11:21;;;;;;;0.10;0.10;;;;;;;3.10;100.00;96469.66;6310681;28;20282;-54
2024/02/24 05:14:23;;;;;;;0.10;0.10;;;;;;;3.13;100.00;96471.03;6309420;28;20194;-53
2024/02/24 05:17:26;;;;;;;0.10;0.10;;;;;;;3.24;100.00;96487.88;6308191;28;20663;-56
2024/02/24 05:20:29;;;;;;;0.10;0.10;;;;;;;3.21;100.00;96498.88;6296063;28;20737;-54
2024/02/24 05:23:31;;;;;;;0.20;0.20;;;;;;;3.14;100.00;96508.66;6314066;28;20204;-57
2024/02/24 05:26:33;;;;;;;0.30;0.20;;;;;;;3.05;100.00;96516.06;6308292;28;20275;-49
2024/02/24 05:29:35;;;;;;;0.10;0.10;;;;;;;3.01;100.00;96517.56;6308351;28;20232;-55
2024/02/24 05:32:37;;;;;;;0.10;0.10;;;;;;;2.95;100.00;96510.53;6310369;28;20557;-57
2024/02/24 05:35:39;;;;;;;0.10;0.10;;;;;;;2.89;100.00;96516.69;6314133;28;20667;-55
2024/02/24 05:38:42;;;;;;;0.17;0.17;;;;;;;2.81;100.00;96523.88;6309140;28;20685;-57
2024/02/24 05:41:44;;;;;;;0.20;0.20;;;;;;;2.77;100.00;96520.06;6304281;28;20625;-57
2024/02/24 05:44:46;;;;;;;0.20;0.20;;;;;;;2.74;100.00;96527.59;6306718;28;20692;-54
2024/02/24 05:47:49;;;;;;;0.20;0.20;;;;;;;2.70;100.00;96529.03;6305243;28;20210;-57
2024/02/24 05:50:51;;;;;;;0.50;0.20;;;;;;;2.65;100.00;96532.31;6307247;28;20320;-57
2024/02/24 05:53:53;;;;;;;0.20;0.20;;;;;;;2.55;100.00;96530.22;6305841;28;20268;-57
2024/02/24 05:56:56;;;;;;;0.10;0.10;;;;;;;2.45;100.00;96529.13;6310201;28;20209;-54
2024/02/24 05:59:58;;;;;;;0.10;0.10;;;;;;;2.22;100.00;96512.19;6316905;28;20182;-56
2024/02/24 06:03:00;;;;;;;0.10;0.10;;;;;;;2.31;100.00;96541.59;6303786;28;20216;-56
2024/02/24 06:06:03;;;;;;;0.10;0.10;;;;;;;2.10;100.00;96529.66;6302202;28;20190;-57
2024/02/24 06:09:06;;;;;;;0.10;0.10;;;;;;;2.20;100.00;96555.44;6311231;28;20274;-55
2024/02/24 06:12:08;;;;;;;0.20;0.20;;;;;;;2.17;100.00;96554.06;6306557;28;20194;-57
2024/02/24 06:15:13;;;;;;;0.10;0.10;;;;;;;2.17;100.00;96566.38;6307866;28;20664;-54
2024/02/24 06:18:15;;;;;;;0.60;0.27;;;;;;;2.24;100.00;96556.63;6305919;28;20194;-57
2024/02/24 06:21:18;;;;;;;0.10;0.10;;;;;;;2.06;100.00;96554.75;6303988;28;20329;-56
2024/02/24 06:24:21;;;;;;;0.23;0.10;;;;;;;2.09;100.00;96558.78;6311897;28;20224;-57
2024/02/24 06:27:23;;;;;;;0.20;0.20;;;;;;;2.08;100.00;96557.19;6309057;28;20189;-57
2024/02/24 06:30:25;;;;;;;0.43;0.30;;;;;;;2.05;100.00;96558.41;6302991;28;21182;-56
2024/02/24 06:33:27;;;;;;;0.10;0.10;;;;;;;2.30;100.00;96571.50;6313845;28;20191;-56
2024/02/24 06:36:29;;;;;;;0.10;0.10;;;;;;;2.21;100.00;96576.22;6310736;28;20196;-57
2024/02/24 06:39:32;;;;;;;0.20;0.20;;;;;;;2.29;100.00;96581.22;6303101;28;20208;-56
2024/02/24 06:42:34;;;;;;;2.07;0.50;;;;;;;2.43;100.00;96592.44;6306077;28;20711;-57
2024/02/24 06:45:36;;;;;;;0.83;0.63;;;;;;;2.42;100.00;96600.53;6306210;28;20919;-57
2024/02/24 06:48:38;;;;;;;0.90;0.80;;;;;;;2.44;100.00;96612.44;6302412;28;20186;-52
2024/02/24 06:51:42;;;;;;;1.13;0.97;;;;;;;2.49;100.00;96617.84;6338809;27;20358;-55
2024/02/24 06:54:44;;;;;;;1.03;0.97;;;;;;;2.55;100.00;96624.03;6301379;28;20222;-55
2024/02/24 06:57:48;;;;;;;1.00;0.60;;;;;;;2.63;100.00;96623.78;6296565;28;20198;-55
2024/02/24 07:00:50;;;;;;;1.60;0.30;;;;;;;2.68;100.00;96628.38;6298870;28;20295;-57
2024/02/24 07:03:52;;;;;;;1.20;0.60;;;;;;;2.66;100.00;96625.16;6293883;28;20223;-56
2024/02/24 07:06:55;;;;;;;1.03;0.87;;;;;;;2.92;100.00;96638.06;6309830;28;20192;-56
2024/02/24 07:09:57;;;;;;;1.23;1.13;;;;;;;2.98;100.00;96636.38;6302712;28;20625;-54
2024/02/24 07:12:59;;;;;;;1.00;0.90;;;;;;;2.95;100.00;96634.16;6305247;28;20924;-54
2024/02/24 07:16:01;;;;;;;2.07;1.20;;;;;;;2.98;100.00;96645.06;6301791;28;20186;-57
2024/02/24 07:19:03;;;;;;;1.27;1.17;;;;;;;3.02;100.00;96654.13;6304985;28;20191;-57
2024/02/24 07:22:06;;;;;;;1.67;1.40;;;;;;;3.04;100.00;96657.34;6308599;28;20186;-57
2024/02/24 07:25:08;;;;;;;1.47;0.90;;;;;;;3.18;100.00;96644.84;6300893;28;20283;-57
2024/02/24 07:28:10;;;;;;;0.70;0.70;;;;;;;3.55;100.00;96647.44;6298271;28;20197;-57
2024/02/24 07:31:12;;;;;;;0.80;0.80;;;;;;;3.57;100.00;96667.25;6295417;28;20200;-56
2024/02/24 07:34:14;;;;;;;0.70;0.70;;;;;;;3.54;100.00;96651.88;6311170;28;20188;-57
2024/02/24 07:37:17;;;;;;;1.33;0.67;;;;;;;3.59;100.00;96656.47;6303110;28;20189;-55
2024/02/24 07:40:19;;;;;;;0.90;0.63;;;;;;;3.70;100.00;96662.84;6302521;28;20639;-56
2024/02/24 07:43:22;;;;;;;0.60;0.60;;;;;;;3.76;100.00;96665.38;6252322;28;20207;-56
2024/02/24 07:46:29;;;;;;;0.87;0.80;;;;;;;3.94;100.00;96668.97;6249606;28;20199;-57
2024/02/24 07:49:31;;;;;;;1.07;0.53;;;;;;;4.05;100.00;96673.50;6256789;28;20819;-54
2024/02/24 07:52:33;;;;;;;0.30;0.30;;;;;;;4.09;100.00;96664.13;6252655;28;20187;-54
2024/02/24 07:55:35;;;;;;;0.50;0.50;;;;;;;4.22;100.00;96676.28;6244811;28;20193;-54
2024/02/24 07:58:37;;;;;;;1.83;0.30;;;;;;;4.34;100.00;96685.84;6253877;28;20196;-54
2024/02/24 08:01:40;;;;;;;0.30;0.30;;;;;;;4.46;100.00;96690.31;6248766;28;20205;-57
2024/02/24 08:04:42;;;;;;;0.73;0.30;;;;;;;4.43;100.00;96686.28;6253642;28;20216;-55
2024/02/24 08:07:44;;;;;;;0.53;0.37;;;;;;;4.60;100.00;96702.28;6259452;28;20277;-57
2024/02/24 08:10:46;;;;;;;0.30;0.30;;;;;;;4.78;100.00;96702.19;6261178;28;20574;-57
2024/02/24 08:13:48;;;;;;;0.47;0.30;;;;;;;4.86;100.00;96701.81;6255676;28;20242;-57
2024/02/24 08:16:50;;;;;;;0.33;0.30;;;;;;;5.07;100.00;96707.53;6256371;28;20204;-56
2024/02/24 08:19:52;;;;;;;0.30;0.30;;;;;;;5.21;100.00;96708.13;6256494;28;20209;-57
2024/02/24 08:22:54;;;;;;;0.50;0.27;;;;;;;5.33;100.00;96714.19;6263934;28;20205;-56
2024/02/24 08:25:56;;;;;;;0.97;0.30;;;;;;;5.53;100.00;96713.81;6254326;28;20659;-56
2024/02/24 08:29:00;;;;;;;0.20;0.20;;;;;;;5.76;100.00;96711.09;6250249;28;20201;-55
2024/02/24 08:32:02;;;;;;;0.10;0.10;;;;;;;5.90;100.00;96716.91;6251395;28;20190;-57
2024/02/24 08:35:05;;;;;;;0.30;0.10;;;;;;;6.22;100.00;96721.78;6254425;28;20690;-56
2024/02/24 08:38:07;;;;;;;0.60;0.10;;;;;;;6.47;95.25;96719.56;6259090;28;20899;-55
2024/02/24 08:41:09;;;;;;;0.30;0.10;;;;;;;6.72;95.74;96717.34;6273818;28;20232;-56
2024/02/24 08:44:12;;;;;;;0.30;0.20;;;;;;;7.02;96.15;96720.69;6307597;28;20200;-58
2024/02/24 08:47:14;;;;;;;0.13;0.13;;;;;;;6.95;82.49;96721.66;6306447;28;20263;-53
2024/02/24 08:50:16;;;;;;;0.20;0.20;;;;;;;7.07;85.77;96726.06;6302140;28;20258;-56
2024/02/24 08:53:19;;;;;;;0.30;0.27;;;;;;;7.27;83.89;96717.59;6301858;28;20194;-53
2024/02/24 08:56:24;;;;;;;0.10;0.10;;;;;;;7.33;85.38;96722.72;6299116;28;20183;-57
2024/02/24 08:59:30;;;;;;;0.57;0.40;;;;;;;7.12;78.02;96726.94;6333570;27;20194;-54
2024/02/24 09:02:32;;;;;;;0.13;0.13;;;;;;;7.28;82.54;96730.59;6310102;28;20212;-57
2024/02/24 09:05:35;;;;;;;0.20;0.10;;;;;;;7.46;82.56;96737.47;6306206;28;20201;-57
2024/02/24 09:08:37;;;;;;;0.60;0.20;;;;;;;7.77;83.91;96741.31;6308727;28;20189;-57
2024/02/24 09:11:41;;;;;;;0.20;0.20;;;;;;;8.04;85.57;96744.03;6308633;28;20311;-57
2024/02/24 09:14:44;;;;;;;0.30;0.30;;;;;;;8.11;86.24;96735.88;6306141;28;20200;-57
2024/02/24 09:17:46;;;;;;;0.67;0.50;;;;;;;8.07;83.22;96751.47;6302505;28;20211;-57
2024/02/24 09:20:48;;;;;;;0.47;0.47;;;;;;;7.91;87.74;96762.97;6304260;28;20194;-54
2024/02/24 09:23:50;;;;;;;1.07;0.80;;;;;;;7.75;87.16;96767.28;6294674;28;20296;-56
2024/02/24 09:26:52;;;;;;;1.10;0.80;;;;;;;7.89;91.65;96765.06;6310049;28;20222;-54
2024/02/24 09:29:57;;;;;;;1.03;0.60;;;;;;;7.86;89.76;96774.31;6307391;28;20194;-56
2024/02/24 09:33:00;;;;;;;1.00;0.53;;;;;;;7.84;87.68;96768.44;6309553;28;20194;-57
2024/02/24 09:36:02;;;;;;;0.83;0.60;;;;;;;7.81;87.92;96770.78;6307777;28;20664;-56
2024/02/24 09:39:05;;;;;;;0.77;0.67;;;;;;;7.58;88.10;96775.25;6305731;28;20203;-57
2024/02/24 09:42:09;;;;;;;1.00;1.00;;;;;;;7.57;87.53;96784.25;6307552;28;20225;-56
2024/02/24 09:45:13;;;;;;;0.70;0.70;;;;;;;7.94;86.81;96789.78;6307641;28;20202;-57
2024/02/24 09:48:16;;;;;;;0.83;0.63;;;;;;;8.16;85.97;96786.31;6311432;28;20186;-55
2024/02/24 09:51:18;;;;;;;0.40;0.40;;;;;;;8.44;83.33;96791.44;6300056;28;20202;-55
2024/02/24 09:54:20;;;;;;;0.70;0.70;;;;;;;8.68;83.53;96797.25;6295678;28;20721;-57
2024/02/24 09:57:27;;;;;;;2.30;0.60;;;;;;;8.79;80.23;96777.72;6306970;28;20228;-57
2024/02/24 10:00:31;;;;;;;1.67;0.60;;;;;;;8.78;81.98;96777.97;6309417;28;20607;-56
2024/02/24 10:03:34;;;;;;;0.40;0.40;;;;;;;9.10;81.78;96803.72;6306888;28;20202;-55
2024/02/24 10:06:40;;;;;;;1.10;0.70;;;;;;;9.23;78.33;96795.34;6305372;28;20726;-57
2024/02/24 10:09:42;;;;;;;1.23;0.83;;;;;;;9.39;82.36;96812.97;6307558;28;20703;-58
2024/02/24 10:12:58;;;;;;;0.60;0.60;;;;;;;9.00;78.54;96796.47;6310362;28;20774;-56
2024/02/24 10:16:06;;;;;;;3.33;0.90;;;;;;;9.18;82.69;96804.06;6307935;28;20273;-57
2024/02/24 10:19:08;;;;;;;0.77;0.70;;;;;;;9.16;82.91;96795.56;6296894;28;20186;-57
2024/02/24 10:22:15;;;;;;;0.70;0.70;;;;;;;9.00;80.66;96791.16;6297409;28;20695;-57
2024/02/24 10:25:18;;;;;;;0.57;0.57;;;;;;;9.28;79.96;96814.78;6305599;28;20279;-57
2024/02/24 10:28:20;;;;;;;0.73;0.73;;;;;;;9.12;81.49;96796.31;6312306;28;20190;-57
2024/02/24 10:31:26;;;;;;;0.73;0.70;;;;;;;9.29;77.04;96813.72;6306842;28;20338;-55
2024/02/24 10:34:29;;;;;;;0.90;0.80;;;;;;;9.03;80.09;96815.38;6307442;28;20254;-57
2024/02/24 10:37:34;;;;;;;1.47;0.70;;;;;;;9.08;78.74;96819.13;6306182;28;20190;-58
2024/02/24 10:40:59;;;;;;;1.20;0.57;;;;;;;9.10;78.26;96811.69;6306864;28;20246;-57
2024/02/24 10:44:02;;;;;;;0.50;0.50;;;;;;;8.97;80.34;96812.94;6307113;28;20205;-57
2024/02/24 10:47:19;;;;;;;0.50;0.50;;;;;;;9.01;79.03;96808.69;6299393;28;20680;-57
2024/02/24 10:50:22;;;;;;;0.83;0.70;;;;;;;8.58;77.65;96807.00;6295730;28;20672;-57
2024/02/24 10:53:28;;;;;;;0.50;0.50;;;;;;;8.62;81.98;96800.09;6305686;28;20186;-54
2024/02/24 10:56:30;;;;;;;0.53;0.53;;;;;;;8.73;80.50;96802.63;6300630;28;20199;-57
2024/02/24 10:59:33;;;;;;;1.03;0.60;;;;;;;8.53;83.10;96797.91;6303928;28;20556;-56
2024/02/24 11:02:35;;;;;;;0.60;0.60;;;;;;;8.70;79.13;96799.66;6309093;28;20201;-56
2024/02/24 11:05:37;;;;;;;0.43;0.43;;;;;;;8.89;79.00;96802.75;6304869;28;20205;-57
2024/02/24 11:08:44;;;;;;;0.83;0.83;;;;;;;9.00;81.32;96799.94;6305760;28;20275;-56
2024/02/24 11:11:49;;;;;;;1.20;0.57;;;;;;;9.13;76.78;96792.59;6301309;28;20187;-57
2024/02/24 11:14:54;;;;;;;0.80;0.80;;;;;;;9.09;79.15;96794.94;6297515;28;20271;-53
2024/02/24 11:17:58;;;;;;;1.50;0.87;;;;;;;8.58;78.66;96791.84;6311150;28;20889;-54
2024/02/24 11:21:01;;;;;;;2.23;0.77;;;;;;;8.69;81.09;96809.47;6310653;28;20179;-56
2024/02/24 11:24:16;;;;;;;0.77;0.77;;;;;;;8.71;79.99;96803.91;6305522;28;20206;-56
2024/02/24 11:27:28;;;;;;;0.53;0.53;;;;;;;8.72;80.30;96810.84;6301118;28;20206;-55
2024/02/24 11:30:33;;;;;;;1.17;0.93;;;;;;;8.78;83.04;96812.50;6301649;28;20190;-54
2024/02/24 11:33:37;;;;;;;0.73;0.73;;;;;;;8.91;80.92;96819.22;6303717;28;20195;-54
2024/02/24 11:36:41;;;;;;;1.20;0.73;;;;;;;8.47;79.38;96788.31;6302321;28;20300;-57
2024/02/24 11:39:44;;;;;;;1.07;0.80;;;;;;;8.83;79.10;96815.19;6303172;28;20805;-57
2024/02/24 11:42:48;;;;;;;1.00;0.90;;;;;;;8.89;78.70;96795.59;6308320;28;20720;-57
2024/02/24 11:45:53;;;;;;;2.40;0.77;;;;;;;9.30;82.39;96830.44;6303914;28;20213;-56
2024/02/24 11:48:55;;;;;;;1.10;1.00;;;;;;;9.60;77.89;96823.75;6316197;28;20207;-56
2024/02/24 11:51:58;;;;;;;0.80;0.80;;;;;;;9.68;76.45;96829.41;6305429;28;20265;-53
2024/02/24 11:55:01;;;;;;;1.80;1.00;;;;;;;9.59;78.06;96827.47;6310804;28;20765;-56
2024/02/24 11:58:07;;;;;;;0.80;0.80;;;;;;;9.46;78.13;96826.06;6316945;28;20203;-56
2024/02/24 12:01:13;;;;;;;0.87;0.87;;;;;;;9.34;77.96;96830.75;6307880;28;20563;-54
2024/02/24 12:04:22;;;;;;;1.20;0.83;;;;;;;9.39;76.68;96836.91;6311782;28;20210;-56
2024/02/24 12:07:24;;;;;;;1.93;0.80;;;;;;;9.22;77.73;96837.06;6309435;28;20198;-53
2024/02/24 12:10:26;;;;;;;1.10;0.90;;;;;;;8.92;78.65;96821.66;6311623;28;20194;-56
2024/02/24 12:13:28;;;;;;;0.90;0.73;;;;;;;8.84;80.87;96838.03;6313183;28;20198;-55
2024/02/24 12:16:31;;;;;;;1.53;1.00;;;;;;;8.97;79.83;96834.97;6311625;28;20191;-53
2024/02/24 12:19:35;;;;;;;1.23;1.00;;;;;;;8.91;80.32;96838.63;6313556;28;20200;-53
2024/02/24 12:22:40;;;;;;;0.73;0.70;;;;;;;8.90;80.48;96831.72;6319262;28;20204;-54
2024/02/24 12:25:45;;;;;;;1.87;0.93;;;;;;;8.79;81.04;96830.03;6300594;28;20749;-57
2024/02/24 12:28:47;;;;;;;1.10;1.00;;;;;;;8.85;81.78;96833.53;6308223;28;20660;-53
2024/02/24 12:31:50;;;;;;;0.90;0.60;;;;;;;9.02;80.19;96832.38;6304970;28;20231;-55
2024/02/24 12:35:04;;;;;;;0.90;0.80;;;;;;;9.02;81.37;96837.69;6311223;28;20248;-53
2024/02/24 12:38:06;;;;;;;0.60;0.60;;;;;;;8.87;81.13;96845.50;6306009;28;20201;-57
2024/02/24 12:41:10;;;;;;;0.90;0.90;;;;;;;8.89;83.79;96846.06;6315863;28;20236;-56
2024/02/24 12:44:12;;;;;;;0.77;0.77;;;;;;;9.02;84.94;96842.19;6302032;28;20206;-57
2024/02/24 12:47:14;;;;;;;0.83;0.70;;;;;;;9.37;80.54;96854.19;6306516;28;20274;-56
2024/02/24 12:50:28;;;;;;;0.70;0.70;;;;;;;9.18;82.19;96859.88;6311588;28;20198;-55
2024/02/24 12:53:30;;;;;;;0.93;0.83;;;;;;;8.98;81.03;96857.84;6306035;28;20263;-57
2024/02/24 12:56:32;;;;;;;0.93;0.80;;;;;;;8.81;79.94;96854.47;6302971;28;20680;-57
2024/02/24 12:59:35;;;;;;;0.70;0.70;;;;;;;8.64;82.16;96861.72;6311586;28;20262;-53
2024/02/24 13:02:38;;;;;;;0.70;0.70;;;;;;;8.65;81.64;96858.03;6306970;28;20396;-56
2024/02/24 13:05:40;;;;;;;0.97;0.80;;;;;;;8.87;81.64;96858.00;6304381;28;20218;-55
2024/02/24 13:08:42;;;;;;;0.70;0.70;;;;;;;8.86;81.90;96851.06;6311069;28;20190;-55
2024/02/24 13:11:44;;;;;;;1.17;0.80;;;;;;;9.08;80.68;96849.16;6311648;28;20201;-55
2024/02/24 13:14:47;;;;;;;0.70;0.60;;;;;;;8.97;80.18;96842.94;6309312;28;20686;-57
2024/02/24 13:17:49;;;;;;;0.60;0.60;;;;;;;8.97;81.79;96856.22;6312810;28;20214;-58
2024/02/24 13:20:52;;;;;;;0.50;0.50;;;;;;;8.91;80.95;96833.31;6302751;28;20759;-56
2024/02/24 13:23:54;;;;;;;0.50;0.50;;;;;;;9.21;79.00;96850.56;6299945;28;20416;-56
2024/02/24 13:26:57;;;;;;;0.57;0.57;;;;;;;9.12;79.94;96852.13;6301987;28;20684;-55
2024/02/24 13:29:59;;;;;;;0.63;0.60;;;;;;;9.32;78.49;96854.13;6304949;28;20194;-55
2024/02/24 13:33:02;;;;;;;0.50;0.50;;;;;;;9.30;76.99;96857.81;6310879;28;20193;-54
2024/02/24 13:36:07;;;;;;;0.40;0.40;;;;;;;9.23;75.78;96851.94;6306199;28;20586;-55
2024/02/24 13:39:10;;;;;;;0.60;0.60;;;;;;;9.12;75.82;96852.91;6309742;28;20190;-55
2024/02/24 13:42:13;;;;;;;0.67;0.53;;;;;;;8.94;77.78;96853.28;6309846;28;20715;-56
2024/02/24 13:45:16;;;;;;;0.50;0.50;;;;;;;8.83;76.87;96863.00;6308326;28;20890;-53
2024/02/24 13:48:18;;;;;;;0.90;0.50;;;;;;;8.92;77.00;96866.81;6310679;28;20199;-55
2024/02/24 13:51:22;;;;;;;0.53;0.40;;;;;;;8.95;77.68;96868.94;6306016;28;20194;-56
2024/02/24 13:54:28;;;;;;;0.60;0.40;;;;;;;8.97;78.01;96874.81;6311020;28;20221;-57
2024/02/24 13:57:30;;;;;;;0.43;0.43;;;;;;;9.10;77.11;96872.81;6310371;28;20215;-53
2024/02/24 14:00:33;;;;;;;0.43;0.43;;;;;;;8.89;77.28;96864.66;6310222;28;20195;-57
2024/02/24 14:03:35;;;;;;;1.23;0.77;;;;;;;9.03;75.96;96883.66;6307917;28;20243;-55
2024/02/24 14:06:37;;;;;;;0.40;0.40;;;;;;;9.01;76.52;96883.06;6303901;28;20696;-56
2024/02/24 14:09:41;;;;;;;0.73;0.70;;;;;;;9.02;79.78;96879.38;6307333;28;20193;-58
2024/02/24 14:12:45;;;;;;;0.67;0.60;;;;;;;9.14;79.02;96895.16;6307456;28;20226;-56
2024/02/24 14:15:48;;;;;;;0.60;0.60;;;;;;;9.06;76.66;96883.13;6306929;28;20271;-55
2024/02/24 14:18:50;;;;;;;1.47;0.60;;;;;;;9.17;75.05;96890.16;6299256;28;20186;-57
2024/02/24 14:21:53;;;;;;;0.73;0.67;;;;;;;8.82;75.82;96874.69;6297531;28;20301;-57
2024/02/24 14:24:56;;;;;;;3.13;0.50;;;;;;;8.93;77.06;96891.50;6305230;28;20275;-56